Parkville, Minnesota
Current Conditions -  °F | °C
As of 7:31 PM on Monday 24 Nov 2014 (Local Time) from KEVM Reporting Station
Light Snow Light Snow  
Wind Chill:   Ceiling: Unl
Heat Index: 18°   Visibility: 10mi
Dew Point: 12°   Wind: 10mph
Humidity: 79%   Direction: 330°NNW
Pressure: 29.72"   Gusts: 18mph
Location:  47.4996°N, 92.6723°W
Report Text: KEVM 250131Z AUTO 33009G16KT 300V000 10SM -SN SCT017 M08/M11 A2972 RMK AO2
Loading
Personal Weather Stations






























Interactive Weather Map New forecast layout! Learn more

10-Day Weather Forecast

Advertisements
Track Severe Weather on mobile